Black River (Missouri), Poplar Bluff (07063000)

StateMissouriLatestLow (766 cfs)
RiverBlack RiverRatingObservedEstimated
Updated2020-09-23 1:15 (29 minutes ago)Flood - The river is flooding. Obstacles can be treacherous or deadly. The river should be avoided at this stage for casual trips and definitely for the inexperienced. Trips should be attempted only with protective gear and equipment.Flood(none)4089
Discharge766 cfs (median: 615 cfs)High - The river is high and potentially dangerous, especially for the young and / or inexperienced. Normal stream obstacles are sometimes difficult to navigate. Extended distances can be attempted, but canoe travel may not be advisable.High(none)1897
Height1.26 feetGood - Conditions are ideal for a canoe or kayak. Boats typically will drag on fewer than one-quarter of riffles, if at all, and portages are unnecessary or rare. Normal float lengths can be attempted without a problem.Good(none)962
TrendRising (rising over 24 hours)Low - River is low but can still be floated. Some riffles are okay but most come with significant dragging and might need a portage. Float lengths should be reduced to accommodate low flow, dragging, and portages.Low(none)636
USGSExternal icon USGS Site (External icon Google Maps)Poor - River is too low to float comfortably. Most or all riffles will drag or must be portaged and some obstacles (such as slick shelf rock) cause undue problems. Avoid the river at this stage for casual paddling trips.Poor(none)338

Trending Data

Plot Image

Trips for Black River (Missouri), Poplar Bluff (07063000)

DateStartEndDistanceConditionDischargeHeightFishingDetails

A total of 0 rows are displayed.

Condition Descriptions

Fishing Conditions

Fish Species

Notes

Classic Trip List

The classic River Trips application is still available for use. It is updated with the new system using a data retrofit. It is no longer maintained. The original River Trips application is no longer updated (as of 1 Dec 2016) but can be checked for errors or for the condition of the data before it was converted to the new system.

Gauge Data Table

ObservationHeightDischargeMaximum
Discharge
Minimum
Discharge
Mean
Discharge
P05P10P20P25P50
(Median)
P75P80P90P95
2020-09-23 01:15 1.26 766 3260 (1965) 226 (1966) 714 278 311 368 400 615 794 872 1140 2000
2020-09-23 00:15 1.25 763 3260 (1965) 226 (1966) 714 278 311 368 400 615 794 872 1140 2000
2020-09-22 23:15 1.26 766 2550 (2016) 246 (2000) 684 275 321 372 394 609 754 831 1300 1660
2020-09-22 22:15 1.25 763 2550 (2016) 246 (2000) 684 275 321 372 394 609 754 831 1300 1660
2020-09-22 21:15 1.24 760 2550 (2016) 246 (2000) 684 275 321 372 394 609 754 831 1300 1660
2020-09-22 20:15 1.24 760 2550 (2016) 246 (2000) 684 275 321 372 394 609 754 831 1300 1660
2020-09-22 19:15 1.23 756 2550 (2016) 246 (2000) 684 275 321 372 394 609 754 831 1300 1660
2020-09-22 18:15 1.23 756 2550 (2016) 246 (2000) 684 275 321 372 394 609 754 831 1300 1660
2020-09-22 17:15 1.22 753 2550 (2016) 246 (2000) 684 275 321 372 394 609 754 831 1300 1660
2020-09-22 16:15 1.21 749 2550 (2016) 246 (2000) 684 275 321 372 394 609 754 831 1300 1660
2020-09-22 15:15 1.21 749 2550 (2016) 246 (2000) 684 275 321 372 394 609 754 831 1300 1660
2020-09-22 14:15 1.19 743 2550 (2016) 246 (2000) 684 275 321 372 394 609 754 831 1300 1660
2020-09-22 13:15 1.19 743 2550 (2016) 246 (2000) 684 275 321 372 394 609 754 831 1300 1660
2020-09-22 12:15 1.16 733 2550 (2016) 246 (2000) 684 275 321 372 394 609 754 831 1300 1660
2020-09-22 11:15 1.16 733 2550 (2016) 246 (2000) 684 275 321 372 394 609 754 831 1300 1660
2020-09-22 10:15 1.14 726 2550 (2016) 246 (2000) 684 275 321 372 394 609 754 831 1300 1660
2020-09-22 09:15 1.12 719 2550 (2016) 246 (2000) 684 275 321 372 394 609 754 831 1300 1660
2020-09-22 08:15 1.13 722 2550 (2016) 246 (2000) 684 275 321 372 394 609 754 831 1300 1660
2020-09-22 07:15 1.11 716 2550 (2016) 246 (2000) 684 275 321 372 394 609 754 831 1300 1660
2020-09-22 06:15 1.10 712 2550 (2016) 246 (2000) 684 275 321 372 394 609 754 831 1300 1660
2020-09-22 05:15 1.09 709 2550 (2016) 246 (2000) 684 275 321 372 394 609 754 831 1300 1660
2020-09-22 04:15 1.09 709 2550 (2016) 246 (2000) 684 275 321 372 394 609 754 831 1300 1660
2020-09-22 03:15 1.09 709 2550 (2016) 246 (2000) 684 275 321 372 394 609 754 831 1300 1660
2020-09-22 02:15 1.09 709 2550 (2016) 246 (2000) 684 275 321 372 394 609 754 831 1300 1660
2020-09-22 01:15 1.09 709 2550 (2016) 246 (2000) 684 275 321 372 394 609 754 831 1300 1660
2020-09-22 00:15 1.09 709 2550 (2016) 246 (2000) 684 275 321 372 394 609 754 831 1300 1660
2020-09-21 23:15 1.08 706 2170 (1985) 245 (2000) 689 280 327 373 387 607 805 876 1270 1790
2020-09-21 22:15 1.10 712 2170 (1985) 245 (2000) 689 280 327 373 387 607 805 876 1270 1790
2020-09-21 21:15 1.10 712 2170 (1985) 245 (2000) 689 280 327 373 387 607 805 876 1270 1790
2020-09-21 20:15 1.10 712 2170 (1985) 245 (2000) 689 280 327 373 387 607 805 876 1270 1790
2020-09-21 19:15 1.09 709 2170 (1985) 245 (2000) 689 280 327 373 387 607 805 876 1270 1790
2020-09-21 18:15 1.09 709 2170 (1985) 245 (2000) 689 280 327 373 387 607 805 876 1270 1790
2020-09-21 17:15 1.09 709 2170 (1985) 245 (2000) 689 280 327 373 387 607 805 876 1270 1790
2020-09-21 16:15 1.10 712 2170 (1985) 245 (2000) 689 280 327 373 387 607 805 876 1270 1790
2020-09-21 15:15 1.11 716 2170 (1985) 245 (2000) 689 280 327 373 387 607 805 876 1270 1790
2020-09-21 14:15 1.10 712 2170 (1985) 245 (2000) 689 280 327 373 387 607 805 876 1270 1790
2020-09-21 13:15 1.12 719 2170 (1985) 245 (2000) 689 280 327 373 387 607 805 876 1270 1790
2020-09-21 12:15 1.11 716 2170 (1985) 245 (2000) 689 280 327 373 387 607 805 876 1270 1790
2020-09-21 11:15 1.10 712 2170 (1985) 245 (2000) 689 280 327 373 387 607 805 876 1270 1790
2020-09-21 10:15 1.11 716 2170 (1985) 245 (2000) 689 280 327 373 387 607 805 876 1270 1790
2020-09-21 09:15 1.12 719 2170 (1985) 245 (2000) 689 280 327 373 387 607 805 876 1270 1790
2020-09-21 08:15 1.11 716 2170 (1985) 245 (2000) 689 280 327 373 387 607 805 876 1270 1790
2020-09-21 07:15 1.11 716 2170 (1985) 245 (2000) 689 280 327 373 387 607 805 876 1270 1790
2020-09-21 06:15 1.11 716 2170 (1985) 245 (2000) 689 280 327 373 387 607 805 876 1270 1790
2020-09-21 05:15 1.12 719 2170 (1985) 245 (2000) 689 280 327 373 387 607 805 876 1270 1790
2020-09-21 04:15 1.12 719 2170 (1985) 245 (2000) 689 280 327 373 387 607 805 876 1270 1790
2020-09-21 03:15 1.13 722 2170 (1985) 245 (2000) 689 280 327 373 387 607 805 876 1270 1790
2020-09-21 02:15 1.12 719 2170 (1985) 245 (2000) 689 280 327 373 387 607 805 876 1270 1790
2020-09-21 01:15 1.13 722 2170 (1985) 245 (2000) 689 280 327 373 387 607 805 876 1270 1790
2020-09-21 00:15 1.12 719 2170 (1985) 245 (2000) 689 280 327 373 387 607 805 876 1270 1790
2020-09-20 23:15 1.13 722 2150 (1985) 246 (2000) 679 267 325 372 389 541 779 869 1300 1800
2020-09-20 22:15 1.13 722 2150 (1985) 246 (2000) 679 267 325 372 389 541 779 869 1300 1800
2020-09-20 21:15 1.14 726 2150 (1985) 246 (2000) 679 267 325 372 389 541 779 869 1300 1800
2020-09-20 20:15 1.13 722 2150 (1985) 246 (2000) 679 267 325 372 389 541 779 869 1300 1800
2020-09-20 19:15 1.14 726 2150 (1985) 246 (2000) 679 267 325 372 389 541 779 869 1300 1800
2020-09-20 18:15 1.13 722 2150 (1985) 246 (2000) 679 267 325 372 389 541 779 869 1300 1800
2020-09-20 17:15 1.14 726 2150 (1985) 246 (2000) 679 267 325 372 389 541 779 869 1300 1800
2020-09-20 16:15 1.14 726 2150 (1985) 246 (2000) 679 267 325 372 389 541 779 869 1300 1800
2020-09-20 15:15 1.15 729 2150 (1985) 246 (2000) 679 267 325 372 389 541 779 869 1300 1800
2020-09-20 14:15 1.14 726 2150 (1985) 246 (2000) 679 267 325 372 389 541 779 869 1300 1800
2020-09-20 13:15 1.14 726 2150 (1985) 246 (2000) 679 267 325 372 389 541 779 869 1300 1800
2020-09-20 12:15 1.14 726 2150 (1985) 246 (2000) 679 267 325 372 389 541 779 869 1300 1800
2020-09-20 11:15 1.16 733 2150 (1985) 246 (2000) 679 267 325 372 389 541 779 869 1300 1800
2020-09-20 10:15 1.15 729 2150 (1985) 246 (2000) 679 267 325 372 389 541 779 869 1300 1800
2020-09-20 09:15 1.15 729 2150 (1985) 246 (2000) 679 267 325 372 389 541 779 869 1300 1800
2020-09-20 08:15 1.15 729 2150 (1985) 246 (2000) 679 267 325 372 389 541 779 869 1300 1800
2020-09-20 07:15 1.16 733 2150 (1985) 246 (2000) 679 267 325 372 389 541 779 869 1300 1800
2020-09-20 06:15 1.17 736 2150 (1985) 246 (2000) 679 267 325 372 389 541 779 869 1300 1800
2020-09-20 05:15 1.17 736 2150 (1985) 246 (2000) 679 267 325 372 389 541 779 869 1300 1800
2020-09-20 04:15 1.16 733 2150 (1985) 246 (2000) 679 267 325 372 389 541 779 869 1300 1800
2020-09-20 03:15 1.17 736 2150 (1985) 246 (2000) 679 267 325 372 389 541 779 869 1300 1800
2020-09-20 02:15 1.17 736 2150 (1985) 246 (2000) 679 267 325 372 389 541 779 869 1300 1800
2020-09-20 01:15 1.17 736 2150 (1985) 246 (2000) 679 267 325 372 389 541 779 869 1300 1800
2020-09-20 00:15 1.18 739 2150 (1985) 246 (2000) 679 267 325 372 389 541 779 869 1300 1800
2020-09-19 23:15 1.19 743 2160 (1985) 247 (1955) 674 269 323 380 396 539 768 805 1270 1930
2020-09-19 22:15 1.20 746 2160 (1985) 247 (1955) 674 269 323 380 396 539 768 805 1270 1930
2020-09-19 21:15 1.20 746 2160 (1985) 247 (1955) 674 269 323 380 396 539 768 805 1270 1930
2020-09-19 20:15 1.21 749 2160 (1985) 247 (1955) 674 269 323 380 396 539 768 805 1270 1930
2020-09-19 19:15 1.22 753 2160 (1985) 247 (1955) 674 269 323 380 396 539 768 805 1270 1930
2020-09-19 18:15 1.22 753 2160 (1985) 247 (1955) 674 269 323 380 396 539 768 805 1270 1930
2020-09-19 17:15 1.22 753 2160 (1985) 247 (1955) 674 269 323 380 396 539 768 805 1270 1930
2020-09-19 16:15 1.24 760 2160 (1985) 247 (1955) 674 269 323 380 396 539 768 805 1270 1930
2020-09-19 15:15 1.25 763 2160 (1985) 247 (1955) 674 269 323 380 396 539 768 805 1270 1930
2020-09-19 14:15 1.27 770 2160 (1985) 247 (1955) 674 269 323 380 396 539 768 805 1270 1930
2020-09-19 13:15 1.28 773 2160 (1985) 247 (1955) 674 269 323 380 396 539 768 805 1270 1930
2020-09-19 12:15 1.29 777 2160 (1985) 247 (1955) 674 269 323 380 396 539 768 805 1270 1930
2020-09-19 11:15 1.32 787 2160 (1985) 247 (1955) 674 269 323 380 396 539 768 805 1270 1930
2020-09-19 10:15 1.32 787 2160 (1985) 247 (1955) 674 269 323 380 396 539 768 805 1270 1930
2020-09-19 09:15 1.33 790 2160 (1985) 247 (1955) 674 269 323 380 396 539 768 805 1270 1930
2020-09-19 08:15 1.34 793 2160 (1985) 247 (1955) 674 269 323 380 396 539 768 805 1270 1930
2020-09-19 07:15 1.35 797 2160 (1985) 247 (1955) 674 269 323 380 396 539 768 805 1270 1930
2020-09-19 06:15 1.36 800 2160 (1985) 247 (1955) 674 269 323 380 396 539 768 805 1270 1930
2020-09-19 05:15 1.37 804 2160 (1985) 247 (1955) 674 269 323 380 396 539 768 805 1270 1930
2020-09-19 04:15 1.37 804 2160 (1985) 247 (1955) 674 269 323 380 396 539 768 805 1270 1930
2020-09-19 03:15 1.38 807 2160 (1985) 247 (1955) 674 269 323 380 396 539 768 805 1270 1930
2020-09-19 02:15 1.38 807 2160 (1985) 247 (1955) 674 269 323 380 396 539 768 805 1270 1930
2020-09-19 01:15 1.38 807 2160 (1985) 247 (1955) 674 269 323 380 396 539 768 805 1270 1930
2020-09-19 00:15 1.38 807 2160 (1985) 247 (1955) 674 269 323 380 396 539 768 805 1270 1930
2020-09-18 23:15 1.38 807 2200 (2008) 250 (1954) 678 264 325 387 399 558 712 794 1270 1890
2020-09-18 22:15 1.39 810 2200 (2008) 250 (1954) 678 264 325 387 399 558 712 794 1270 1890
2020-09-18 21:15 1.39 810 2200 (2008) 250 (1954) 678 264 325 387 399 558 712 794 1270 1890
2020-09-18 20:15 1.38 807 2200 (2008) 250 (1954) 678 264 325 387 399 558 712 794 1270 1890
2020-09-18 19:15 1.38 807 2200 (2008) 250 (1954) 678 264 325 387 399 558 712 794 1270 1890
2020-09-18 18:15 1.39 810 2200 (2008) 250 (1954) 678 264 325 387 399 558 712 794 1270 1890
2020-09-18 17:15 1.38 807 2200 (2008) 250 (1954) 678 264 325 387 399 558 712 794 1270 1890
2020-09-18 16:15 1.40 814 2200 (2008) 250 (1954) 678 264 325 387 399 558 712 794 1270 1890
2020-09-18 15:15 1.38 807 2200 (2008) 250 (1954) 678 264 325 387 399 558 712 794 1270 1890
2020-09-18 14:15 1.39 810 2200 (2008) 250 (1954) 678 264 325 387 399 558 712 794 1270 1890
2020-09-18 13:15 1.39 810 2200 (2008) 250 (1954) 678 264 325 387 399 558 712 794 1270 1890
2020-09-18 12:15 1.40 814 2200 (2008) 250 (1954) 678 264 325 387 399 558 712 794 1270 1890
2020-09-18 11:15 1.40 814 2200 (2008) 250 (1954) 678 264 325 387 399 558 712 794 1270 1890
2020-09-18 10:15 1.39 810 2200 (2008) 250 (1954) 678 264 325 387 399 558 712 794 1270 1890
2020-09-18 09:15 1.40 814 2200 (2008) 250 (1954) 678 264 325 387 399 558 712 794 1270 1890
2020-09-18 08:15 1.39 810 2200 (2008) 250 (1954) 678 264 325 387 399 558 712 794 1270 1890
2020-09-18 07:15 1.40 814 2200 (2008) 250 (1954) 678 264 325 387 399 558 712 794 1270 1890
2020-09-18 06:15 1.39 810 2200 (2008) 250 (1954) 678 264 325 387 399 558 712 794 1270 1890
2020-09-18 05:15 1.40 814 2200 (2008) 250 (1954) 678 264 325 387 399 558 712 794 1270 1890
2020-09-18 04:15 1.40 814 2200 (2008) 250 (1954) 678 264 325 387 399 558 712 794 1270 1890
2020-09-18 03:15 1.40 814 2200 (2008) 250 (1954) 678 264 325 387 399 558 712 794 1270 1890
2020-09-18 02:15 1.41 817 2200 (2008) 250 (1954) 678 264 325 387 399 558 712 794 1270 1890
2020-09-18 01:15 1.40 814 2200 (2008) 250 (1954) 678 264 325 387 399 558 712 794 1270 1890
2020-09-18 00:15 1.40 814 2200 (2008) 250 (1954) 678 264 325 387 399 558 712 794 1270 1890
2020-09-17 23:15 1.40 814 2070 (1985) 250 (1954) 670 266 325 379 389 534 734 798 1430 1770
2020-09-17 22:15 1.39 810 2070 (1985) 250 (1954) 670 266 325 379 389 534 734 798 1430 1770
2020-09-17 21:15 1.40 814 2070 (1985) 250 (1954) 670 266 325 379 389 534 734 798 1430 1770
2020-09-17 20:15 1.39 810 2070 (1985) 250 (1954) 670 266 325 379 389 534 734 798 1430 1770
2020-09-17 19:15 1.40 814 2070 (1985) 250 (1954) 670 266 325 379 389 534 734 798 1430 1770
2020-09-17 18:15 1.39 810 2070 (1985) 250 (1954) 670 266 325 379 389 534 734 798 1430 1770
2020-09-17 17:15 1.39 810 2070 (1985) 250 (1954) 670 266 325 379 389 534 734 798 1430 1770
2020-09-17 16:15 1.39 810 2070 (1985) 250 (1954) 670 266 325 379 389 534 734 798 1430 1770
2020-09-17 15:15 1.38 807 2070 (1985) 250 (1954) 670 266 325 379 389 534 734 798 1430 1770
2020-09-17 14:15 1.38 807 2070 (1985) 250 (1954) 670 266 325 379 389 534 734 798 1430 1770
2020-09-17 13:15 1.37 804 2070 (1985) 250 (1954) 670 266 325 379 389 534 734 798 1430 1770
2020-09-17 12:15 1.38 807 2070 (1985) 250 (1954) 670 266 325 379 389 534 734 798 1430 1770
2020-09-17 11:15 1.37 804 2070 (1985) 250 (1954) 670 266 325 379 389 534 734 798 1430 1770
2020-09-17 10:15 1.36 800 2070 (1985) 250 (1954) 670 266 325 379 389 534 734 798 1430 1770
2020-09-17 09:15 1.35 797 2070 (1985) 250 (1954) 670 266 325 379 389 534 734 798 1430 1770
2020-09-17 08:15 1.34 793 2070 (1985) 250 (1954) 670 266 325 379 389 534 734 798 1430 1770
2020-09-17 07:15 1.34 793 2070 (1985) 250 (1954) 670 266 325 379 389 534 734 798 1430 1770
2020-09-17 06:15 1.35 797 2070 (1985) 250 (1954) 670 266 325 379 389 534 734 798 1430 1770
2020-09-17 05:15 1.33 790 2070 (1985) 250 (1954) 670 266 325 379 389 534 734 798 1430 1770
2020-09-17 04:15 1.33 790 2070 (1985) 250 (1954) 670 266 325 379 389 534 734 798 1430 1770
2020-09-17 03:15 1.33 790 2070 (1985) 250 (1954) 670 266 325 379 389 534 734 798 1430 1770
2020-09-17 02:15 1.33 790 2070 (1985) 250 (1954) 670 266 325 379 389 534 734 798 1430 1770
2020-09-17 01:15 1.33 790 2070 (1985) 250 (1954) 670 266 325 379 389 534 734 798 1430 1770
2020-09-17 00:15 1.33 790 2070 (1985) 250 (1954) 670 266 325 379 389 534 734 798 1430 1770
2020-09-16 23:15 1.34 793 2110 (1985) 250 (1954) 653 273 324 381 387 499 745 800 1270 1870
2020-09-16 22:15 1.33 790 2110 (1985) 250 (1954) 653 273 324 381 387 499 745 800 1270 1870
2020-09-16 21:15 1.33 790 2110 (1985) 250 (1954) 653 273 324 381 387 499 745 800 1270 1870
2020-09-16 20:15 1.33 790 2110 (1985) 250 (1954) 653 273 324 381 387 499 745 800 1270 1870
2020-09-16 19:15 1.34 793 2110 (1985) 250 (1954) 653 273 324 381 387 499 745 800 1270 1870
2020-09-16 18:15 1.34 793 2110 (1985) 250 (1954) 653 273 324 381 387 499 745 800 1270 1870
2020-09-16 17:15 1.33 790 2110 (1985) 250 (1954) 653 273 324 381 387 499 745 800 1270 1870
2020-09-16 16:15 1.34 793 2110 (1985) 250 (1954) 653 273 324 381 387 499 745 800 1270 1870
2020-09-16 15:15 1.34 793 2110 (1985) 250 (1954) 653 273 324 381 387 499 745 800 1270 1870
2020-09-16 14:15 1.34 793 2110 (1985) 250 (1954) 653 273 324 381 387 499 745 800 1270 1870
2020-09-16 13:15 1.35 797 2110 (1985) 250 (1954) 653 273 324 381 387 499 745 800 1270 1870
2020-09-16 12:15 1.35 797 2110 (1985) 250 (1954) 653 273 324 381 387 499 745 800 1270 1870
2020-09-16 11:15 1.34 793 2110 (1985) 250 (1954) 653 273 324 381 387 499 745 800 1270 1870
2020-09-16 10:15 1.34 793 2110 (1985) 250 (1954) 653 273 324 381 387 499 745 800 1270 1870
2020-09-16 09:15 1.35 797 2110 (1985) 250 (1954) 653 273 324 381 387 499 745 800 1270 1870
2020-09-16 08:15 1.34 793 2110 (1985) 250 (1954) 653 273 324 381 387 499 745 800 1270 1870
2020-09-16 07:15 1.34 793 2110 (1985) 250 (1954) 653 273 324 381 387 499 745 800 1270 1870
2020-09-16 06:15 1.34 793 2110 (1985) 250 (1954) 653 273 324 381 387 499 745 800 1270 1870
2020-09-16 05:15 1.36 800 2110 (1985) 250 (1954) 653 273 324 381 387 499 745 800 1270 1870
2020-09-16 04:15 1.36 800 2110 (1985) 250 (1954) 653 273 324 381 387 499 745 800 1270 1870
2020-09-16 03:15 1.35 797 2110 (1985) 250 (1954) 653 273 324 381 387 499 745 800 1270 1870
2020-09-16 02:15 1.35 797 2110 (1985) 250 (1954) 653 273 324 381 387 499 745 800 1270 1870
2020-09-16 01:15 1.36 800 2110 (1985) 250 (1954) 653 273 324 381 387 499 745 800 1270 1870
2020-09-16 00:15 1.36 800 2110 (1985) 250 (1954) 653 273 324 381 387 499 745 800 1270 1870

A total of 170 rows are displayed for years 1949 through 2019.